EDT,Max TemperatureF,Mean TemperatureF,Min TemperatureF,Max Dew PointF,MeanDew PointF,Min DewpointF,Max Humidity, Mean Humidity, Min Humidity, Max Sea Level PressureIn, Mean Sea Level PressureIn, Min Sea Level PressureIn, Max VisibilityMiles, Mean VisibilityMiles, Min VisibilityMiles, Max Wind SpeedMPH, Mean Wind SpeedMPH, Max Gust SpeedMPH,PrecipitationIn, CloudCover, Events, WindDirDegrees
2013-9-1,84,77,70,70,68,67,93,76,58,29.84,29.80,29.76,10,6,0,14,6,17,0.00,6,Fog,209
2013-9-2,82,72,61,70,66,58,93,78,62,29.86,29.80,29.76,10,6,1,21,5,24,0.61,5,Rain-Thunderstorm,272
2013-9-3,65,60,55,60,55,52,93,80,67,30.06,29.97,29.87,10,9,5,15,6,20,0.00,6,,296
2013-9-4,80,66,52,57,54,50,93,68,42,30.13,30.09,30.05,10,8,4,15,7,20,0.00,1,,253
2013-9-5,74,64,53,59,53,44,90,64,38,30.24,30.15,30.06,10,10,7,16,7,23,0.00,4,,348
2013-9-6,75,62,48,49,46,42,93,63,33,30.29,30.22,30.13,10,10,10,8,3,12,0.00,2,,51
2013-9-7,82,68,53,64,54,46,84,62,39,30.12,30.04,29.94,10,10,7,13,6,17,0.01,4,Rain,231
2013-9-8,76,67,57,67,61,50,93,77,60,30.07,29.99,29.91,10,7,2,16,7,20,0.01,6,,15
2013-9-9,83,68,53,71,62,50,89,76,63,30.09,30.04,30.00,10,7,4,13,7,18,0.02,5,Rain-Thunderstorm,159
2013-9-10,93,83,72,74,70,67,85,67,49,30.11,30.06,30.01,6,5,5,18,11,24,0.00,2,,223
2013-9-11,92,82,71,73,70,66,93,69,44,30.15,30.07,29.98,7,5,2,15,8,18,0.00,3,,220
2013-9-12,73,66,59,69,65,56,90,84,78,29.97,29.91,29.83,10,4,1,24,7,30,0.80,6,Rain-Thunderstorm,269
2013-9-13,62,57,51,57,52,46,93,80,67,30.07,29.95,29.86,10,8,0,22,9,26,0.07,7,Fog-Rain,341
2013-9-14,67,57,47,48,43,40,86,64,42,30.17,30.13,30.07,10,10,10,12,4,15,0.00,3,,357
2013-9-15,67,57,47,54,48,44,86,69,52,30.18,30.13,30.08,10,10,8,13,4,15,0.04,6,Rain,209
2013-9-16,70,59,48,55,52,47,93,74,55,30.34,30.21,30.11,10,8,4,20,6,40,0.02,5,Rain,6
2013-9-17,70,56,42,48,45,42,100,70,40,30.41,30.34,30.25,10,6,0,12,6,17,0.00,3,Fog,84
2013-9-18,74,62,50,59,51,43,90,72,53,30.24,30.18,30.09,10,10,5,15,8,18,0.00,5,,155
2013-9-19,75,69,62,64,62,59,93,81,68,30.13,30.08,30.02,5,3,1,14,8,16,0.00,8,,193
2013-9-20,82,74,65,69,66,63,93,80,67,30.04,29.93,29.81,10,4,2,21,10,25,0.01,7,Rain,190
2013-9-21,70,62,54,66,61,53,93,76,59,29.82,29.73,29.67,10,6,1,16,7,22,1.31,7,Rain,274
2013-9-22,61,56,50,52,47,43,93,75,57,30.05,29.95,29.83,10,10,5,14,8,18,0.00,6,,337
2013-9-23,59,52,44,47,44,41,89,71,53,30.17,30.13,30.06,10,10,10,10,4,17,0.00,7,,51
2013-9-24,68,55,41,49,44,39,93,68,42,30.15,30.08,30.00,10,8,4,12,5,16,0.00,0,,63
2013-9-25,74,60,45,53,49,43,93,69,44,30.00,29.95,29.91,10,8,3,13,7,15,0.00,4,,47
2013-9-26,76,62,47,52,47,42,93,62,31,30.12,30.04,29.96,10,10,9,13,6,16,0.00,1,,35
2013-9-27,73,61,49,53,49,47,93,69,44,30.21,30.17,30.11,10,10,10,15,8,18,0.00,0,,49
2013-9-28,76,65,53,55,53,50,89,68,46,30.24,30.18,30.12,10,9,4,14,8,18,0.00,2,,136
2013-9-29,74,64,54,59,55,50,93,75,57,30.12,30.06,30.00,10,10,7,14,7,18,T,5,,182
2013-9-30,80,69,58,59,58,56,90,84,78,30.04,30.01,29.99,10,7,4,14,7,18,T,7,Rain,207